createdAt,value
2022-08-08T00:00:51.554Z,0.85
2022-08-08T00:04:16.180Z,0.83
2022-08-08T00:09:15.817Z,0.82
2022-08-08T00:14:16.027Z,0.83
2022-08-08T00:19:11.955Z,0.86
2022-08-08T00:24:11.991Z,0.84
2022-08-08T00:29:11.983Z,0.85
2022-08-08T00:34:17.788Z,0.96
2022-08-08T00:41:06.246Z,0.86
2022-08-08T00:44:12.012Z,0.81
2022-08-08T00:49:12.005Z,0.81
2022-08-08T00:54:13.506Z,0.83
2022-08-08T00:59:11.983Z,0.8
2022-08-08T01:04:12.460Z,0.78
2022-08-08T01:09:35.305Z,0.81
2022-08-08T01:14:13.613Z,0.82
2022-08-08T01:19:13.952Z,0.8
2022-08-08T01:24:13.946Z,0.74
2022-08-08T01:29:11.987Z,0.79
2022-08-08T01:34:11.988Z,0.83
2022-08-08T01:39:23.151Z,0.76
2022-08-08T01:44:12.030Z,0.72
2022-08-08T01:49:14.211Z,0.69
2022-08-08T01:55:18.056Z,0.69
2022-08-08T01:59:12.010Z,0.74
2022-08-08T02:09:16.190Z,0.68
2022-08-08T02:14:12.018Z,0.68
2022-08-08T02:19:27.053Z,0.67
2022-08-08T02:24:12.021Z,0.66
2022-08-08T02:29:14.992Z,0.7
2022-08-08T02:34:14.954Z,0.78
2022-08-08T02:39:40.218Z,0.72
2022-08-08T02:49:13.443Z,0.65
2022-08-08T02:54:12.067Z,0.71
2022-08-08T02:59:17.397Z,0.73
2022-08-08T03:05:01.877Z,0.7
2022-08-08T03:09:12.156Z,0.67
2022-08-08T03:15:55.085Z,0.71
2022-08-08T03:19:12.094Z,0.71
2022-08-08T03:24:12.086Z,0.77
2022-08-08T03:29:15.095Z,0.75
2022-08-08T03:34:14.213Z,0.8
2022-08-08T03:39:15.429Z,0.75
2022-08-08T03:44:12.093Z,0.71
2022-08-08T03:49:30.388Z,0.68
2022-08-08T03:54:15.347Z,0.69
2022-08-08T03:59:23.000Z,0.7
2022-08-08T04:04:12.136Z,0.7
2022-08-08T04:09:12.111Z,0.71
2022-08-08T04:14:33.568Z,0.72
2022-08-08T04:19:20.851Z,0.98
2022-08-08T04:24:19.381Z,1.03
2022-08-08T04:29:12.088Z,1.07
2022-08-08T04:34:12.095Z,1.09
2022-08-08T04:39:21.677Z,1.04
2022-08-08T04:44:12.089Z,0.98
2022-08-08T04:49:12.113Z,0.93
2022-08-08T04:54:36.148Z,0.87
2022-08-08T04:59:12.088Z,0.89
2022-08-08T05:04:12.760Z,0.91
2022-08-08T05:09:12.101Z,0.88
2022-08-08T05:14:12.879Z,0.83
2022-08-08T05:20:04.673Z,0.87
2022-08-08T05:29:12.146Z,0.81
2022-08-08T05:34:12.167Z,0.89
2022-08-08T05:39:12.168Z,0.86
2022-08-08T05:44:12.157Z,0.84
2022-08-08T05:49:12.119Z,0.78
2022-08-08T05:54:26.588Z,0.83
2022-08-08T05:59:12.377Z,0.84
2022-08-08T06:04:13.645Z,1.16
2022-08-08T06:09:42.176Z,0.98
2022-08-08T06:14:12.564Z,0.98
2022-08-08T06:19:15.962Z,1.28
2022-08-08T06:24:13.681Z,1.18
2022-08-08T06:29:27.025Z,1.19
2022-08-08T06:34:25.349Z,1.11
2022-08-08T06:39:12.216Z,0.86
2022-08-08T06:44:12.296Z,1
2022-08-08T06:49:12.191Z,0.78
2022-08-08T06:54:12.187Z,0.84
2022-08-08T06:59:12.534Z,0.83
2022-08-08T07:04:36.061Z,0.82
2022-08-08T07:11:07.607Z,0.82
2022-08-08T07:16:10.456Z,0.85
2022-08-08T07:21:18.783Z,0.75
2022-08-08T07:26:06.561Z,0.78
2022-08-08T07:31:06.564Z,0.78
2022-08-08T07:36:06.593Z,0.95
2022-08-08T07:41:06.600Z,0.87
2022-08-08T07:46:18.239Z,0.99
2022-08-08T07:51:08.135Z,0.94
2022-08-08T07:56:06.616Z,0.91
2022-08-08T08:01:06.655Z,0.74
2022-08-08T08:06:06.609Z,0.78
2022-08-08T08:11:06.609Z,0.78
2022-08-08T08:16:06.613Z,0.78
2022-08-08T08:21:13.449Z,0.83
2022-08-08T08:26:06.625Z,1.02
2022-08-08T08:31:06.672Z,0.89
2022-08-08T08:36:18.225Z,0.87
2022-08-08T08:41:13.155Z,0.75
2022-08-08T08:46:06.667Z,0.78
2022-08-08T08:51:06.661Z,0.91
2022-08-08T08:56:06.641Z,0.86
2022-08-08T09:01:09.427Z,0.88
2022-08-08T09:06:19.364Z,0.9
2022-08-08T09:11:06.640Z,0.89
2022-08-08T09:16:06.659Z,0.81
2022-08-08T09:21:55.897Z,1.01
2022-08-08T09:26:06.659Z,1.02
2022-08-08T09:31:12.445Z,0.82
2022-08-08T09:36:06.664Z,0.82
2022-08-08T09:41:06.669Z,0.7
2022-08-08T09:46:06.663Z,0.85
2022-08-08T09:51:06.709Z,0.83
2022-08-08T09:56:09.407Z,0.8
2022-08-08T10:01:14.794Z,0.8
2022-08-08T10:06:06.687Z,0.84
2022-08-08T10:11:12.229Z,0.8
2022-08-08T10:16:06.694Z,1.01
2022-08-08T10:21:08.674Z,0.96
2022-08-08T10:26:12.416Z,0.95
2022-08-08T10:31:06.691Z,1.05
2022-08-08T10:36:09.857Z,1
2022-08-08T10:41:06.727Z,1.06
2022-08-08T10:46:06.709Z,0.96
2022-08-08T10:51:06.703Z,1.11
2022-08-08T10:56:06.709Z,1.02
2022-08-08T11:01:10.582Z,1.23
2022-08-08T11:06:06.748Z,1.26
2022-08-08T11:11:08.112Z,1.17
2022-08-08T11:16:07.590Z,1.2
2022-08-08T11:21:08.763Z,0.97
2022-08-08T11:26:06.751Z,1.08
2022-08-08T11:31:08.797Z,1.08
2022-08-08T11:36:06.725Z,0.99
2022-08-08T11:41:06.726Z,1.16
2022-08-08T11:46:13.686Z,1.2
2022-08-08T11:51:31.026Z,1.01
2022-08-08T11:56:06.751Z,0.93
2022-08-08T12:01:08.667Z,1.1
2022-08-08T12:06:06.749Z,1.1
2022-08-08T12:11:06.757Z,1.45
2022-08-08T12:16:06.745Z,3.06
2022-08-08T12:21:07.846Z,2.9
2022-08-08T12:26:06.817Z,2.1
2022-08-08T12:31:07.043Z,1.22
2022-08-08T12:36:06.762Z,0.92
2022-08-08T12:41:16.671Z,0.87
2022-08-08T12:46:06.771Z,1.11
2022-08-08T12:51:07.743Z,1.27
2022-08-08T12:56:08.918Z,1.03
2022-08-08T13:01:06.811Z,0.95
2022-08-08T13:06:08.413Z,1.29
2022-08-08T13:11:06.810Z,1.4
2022-08-08T13:16:06.797Z,1.52
2022-08-08T13:21:06.795Z,1.73
2022-08-08T13:26:13.222Z,1.61
2022-08-08T13:31:06.836Z,1.59
2022-08-08T13:36:06.803Z,1.28
2022-08-08T13:41:06.794Z,1.26
2022-08-08T13:46:06.802Z,1.06
2022-08-08T13:51:25.336Z,1.27
2022-08-08T13:56:06.814Z,3.45
2022-08-08T14:01:06.859Z,1.06
2022-08-08T14:06:06.827Z,1.06
2022-08-08T14:11:06.818Z,1.14
2022-08-08T14:16:07.908Z,1.05
2022-08-08T14:21:07.984Z,0.8
2022-08-08T14:26:10.732Z,0.85
2022-08-08T14:31:07.711Z,0.93
2022-08-08T14:36:06.827Z,0.8
2022-08-08T14:41:06.834Z,0.89
2022-08-08T14:46:06.870Z,0.82
2022-08-08T14:51:07.326Z,0.81
2022-08-08T14:56:06.843Z,1.13
2022-08-08T15:01:07.345Z,1.01
2022-08-08T15:06:06.851Z,0.91
2022-08-08T15:11:06.908Z,0.75
2022-08-08T15:16:06.865Z,0.76
2022-08-08T15:21:06.897Z,0.76
2022-08-08T15:26:09.662Z,0.71
2022-08-08T15:31:06.905Z,0.66
2022-08-08T15:36:06.858Z,0.68
2022-08-08T15:41:06.873Z,0.77
2022-08-08T15:46:06.874Z,0.82
2022-08-08T15:51:07.028Z,1
2022-08-08T15:56:08.670Z,1.08
2022-08-08T16:01:06.934Z,0.85
2022-08-08T16:06:06.882Z,0.7
2022-08-08T16:13:06.442Z,0.71
2022-08-08T16:16:09.726Z,0.95
2022-08-08T16:21:20.831Z,2.12
2022-08-08T16:26:12.882Z,3.15
2022-08-08T16:31:08.014Z,4.29
2022-08-08T16:36:08.630Z,3.65
2022-08-08T16:41:06.904Z,2.57
2022-08-08T16:46:38.196Z,2.15
2022-08-08T16:51:08.296Z,2.03
2022-08-08T16:56:13.761Z,1.9
2022-08-08T17:01:09.278Z,1.65
2022-08-08T17:06:06.907Z,1.36
2022-08-08T17:11:10.696Z,1.22
2022-08-08T17:16:06.921Z,1.12
2022-08-08T17:21:06.928Z,0.93
2022-08-08T17:26:06.921Z,0.96
2022-08-08T17:31:11.869Z,1.11
2022-08-08T17:36:11.161Z,1.12
2022-08-08T17:42:03.016Z,1.65
2022-08-08T17:47:52.024Z,1.4
2022-08-08T17:52:52.010Z,1.52
2022-08-08T17:57:52.025Z,1.42
2022-08-08T18:02:52.291Z,1.4
2022-08-08T18:08:01.618Z,1.51
2022-08-08T18:12:53.016Z,1.6
2022-08-08T18:18:05.659Z,1.75
2022-08-08T18:22:52.002Z,1.76
2022-08-08T18:27:52.002Z,1.66
2022-08-08T18:32:52.042Z,1.53
2022-08-08T18:37:52.201Z,1.36
2022-08-08T18:42:52.047Z,1.35
2022-08-08T18:47:52.019Z,1.34
2022-08-08T18:52:52.598Z,1.22
2022-08-08T18:57:52.020Z,1.27
2022-08-08T19:02:56.262Z,1.23
2022-08-08T19:07:52.744Z,1.19
2022-08-08T19:12:53.418Z,1.18
2022-08-08T19:18:31.655Z,1.05
2022-08-08T19:22:52.064Z,1.03
2022-08-08T19:27:55.515Z,1.08
2022-08-08T19:32:52.041Z,1.01
2022-08-08T19:37:55.203Z,0.9
2022-08-08T19:42:52.040Z,1.09
2022-08-08T19:47:52.042Z,1
2022-08-08T19:52:55.113Z,0.9
2022-08-08T19:57:52.047Z,1.34
2022-08-08T20:02:52.105Z,1.07
2022-08-08T20:08:27.400Z,1.03
2022-08-08T20:12:59.300Z,1.62
2022-08-08T20:17:52.097Z,1.08
2022-08-08T20:22:52.823Z,0.81
2022-08-08T20:27:54.084Z,0.8
2022-08-08T20:32:52.067Z,0.71
2022-08-08T20:37:53.218Z,0.7
2022-08-08T20:42:54.097Z,0.67
2022-08-08T20:47:57.698Z,0.68
2022-08-08T20:52:52.081Z,0.72
2022-08-08T20:57:52.082Z,0.67
2022-08-08T21:02:52.648Z,0.66
2022-08-08T21:08:34.218Z,0.69
2022-08-08T21:12:52.808Z,0.71
2022-08-08T21:17:55.740Z,0.7
2022-08-08T21:22:52.103Z,0.66
2022-08-08T21:28:06.962Z,0.66
2022-08-08T21:32:53.278Z,0.66
2022-08-08T21:37:53.455Z,0.67
2022-08-08T21:42:52.108Z,0.69
2022-08-08T21:48:03.519Z,0.65
2022-08-08T21:54:19.938Z,0.65
2022-08-08T21:58:04.373Z,0.72
2022-08-08T22:02:52.113Z,0.91
2022-08-08T22:07:52.120Z,0.71
2022-08-08T22:12:52.121Z,0.69
2022-08-08T22:17:52.122Z,0.66
2022-08-08T22:22:52.472Z,0.69
2022-08-08T22:28:00.765Z,0.69
2022-08-08T22:32:52.143Z,0.74
2022-08-08T22:37:53.953Z,0.74
2022-08-08T22:42:52.147Z,0.71
2022-08-08T22:47:52.341Z,0.71
2022-08-08T22:53:00.071Z,0.7
2022-08-08T22:57:52.176Z,0.7
2022-08-08T23:02:52.173Z,0.73
2022-08-08T23:07:57.303Z,0.74
2022-08-08T23:12:52.256Z,0.79
2022-08-08T23:17:54.208Z,0.71
2022-08-08T23:22:52.156Z,0.66
2022-08-08T23:32:52.159Z,0.81
2022-08-08T23:37:54.316Z,0.77
2022-08-08T23:42:52.196Z,0.77
2022-08-08T23:48:58.771Z,0.77
2022-08-08T23:52:52.171Z,0.83
2022-08-08T23:57:53.408Z,0.76
